Time;durP1;ratioP1;P1;durP2;ratioP2;P2;SDS_P1;SDS_P2;PMS_P1;PMS_P2;Temp;Humidity;BMP_temperature;BMP_pressure;BME280_temperature;BME280_humidity;BME280_pressure;Samples;Min_cycle;Max_cycle;Signal;HPM_P1;HPM_P2
2023/05/12 00:02:08;;;;;;;10.07;6.05;;;;;;;;;;5013879;28;20129;-66
2023/05/12 00:04:34;;;;;;;13.98;6.68;;;;;;;;;;5014751;28;20045;-65
2023/05/12 00:07:00;;;;;;;12.75;7.20;;;;;;;;;;5046271;28;20053;-65
2023/05/12 00:09:25;;;;;;;16.33;6.22;;;;;;;;;;5043445;28;20132;-65
2023/05/12 00:11:53;;;;;;;12.93;7.22;;;;;;;;;;5045236;28;20159;-65
2023/05/12 00:14:20;;;;;;;12.25;6.57;;;;;;;;;;5015431;28;20696;-65
2023/05/12 00:16:50;;;;;;;12.45;6.90;;;;;;;;;;5014071;28;20065;-66
2023/05/12 00:19:15;;;;;;;11.80;6.88;;;;;;;;;;5015158;28;20040;-66
2023/05/12 00:21:42;;;;;;;13.13;6.57;;;;;;;;;;5044832;28;21118;-66
2023/05/12 00:24:07;;;;;;;11.88;6.57;;;;;;;;;;5014951;28;20041;-64
2023/05/12 00:26:35;;;;;;;15.48;6.80;;;;;;;;;;5013605;28;20537;-65
2023/05/12 00:29:00;;;;;;;12.65;6.85;;;;;;;;;;5018897;28;20039;-65
2023/05/12 00:31:29;;;;;;;13.75;6.43;;;;;;;;;;5011910;28;20180;-66
2023/05/12 00:33:57;;;;;;;12.50;6.05;;;;;;;;;;5045369;28;20733;-64
2023/05/12 00:36:25;;;;;;;11.63;6.72;;;;;;;;;;5012875;28;20564;-65
2023/05/12 00:38:50;;;;;;;12.98;6.28;;;;;;;;;;5046500;28;20127;-64
2023/05/12 00:41:15;;;;;;;10.35;6.18;;;;;;;;;;5011738;28;20030;-65
2023/05/12 00:43:46;;;;;;;11.32;6.07;;;;;;;;;;5031503;28;20056;-65
2023/05/12 00:46:11;;;;;;;13.90;6.80;;;;;;;;;;5012102;28;20140;-65
2023/05/12 00:48:36;;;;;;;10.50;6.18;;;;;;;;;;5010492;28;20041;-65
2023/05/12 00:51:02;;;;;;;13.45;5.95;;;;;;;;;;5030646;28;20037;-65
2023/05/12 00:53:28;;;;;;;11.73;6.32;;;;;;;;;;5040339;28;20041;-65
2023/05/12 00:55:54;;;;;;;10.75;6.47;;;;;;;;;;5040035;28;20621;-65
2023/05/12 00:58:19;;;;;;;11.38;6.25;;;;;;;;;;5011419;28;20156;-65
2023/05/12 01:00:45;;;;;;;13.65;7.57;;;;;;;;;;5008690;28;20068;-64
2023/05/12 01:03:10;;;;;;;19.77;7.93;;;;;;;;;;5041440;28;20071;-65
2023/05/12 01:05:41;;;;;;;19.02;8.25;;;;;;;;;;5039738;28;20600;-65
2023/05/12 01:08:08;;;;;;;15.73;8.63;;;;;;;;;;5023192;28;20297;-65
2023/05/12 01:10:33;;;;;;;14.35;7.97;;;;;;;;;;5024838;28;20064;-65
2023/05/12 01:12:58;;;;;;;19.92;9.35;;;;;;;;;;5006488;28;20041;-65
2023/05/12 01:15:24;;;;;;;19.45;8.85;;;;;;;;;;5011413;28;20159;-65
2023/05/12 01:17:53;;;;;;;13.20;8.80;;;;;;;;;;5010545;28;20053;-65
2023/05/12 01:20:20;;;;;;;14.93;8.70;;;;;;;;;;5007592;28;20213;-65
2023/05/12 01:22:46;;;;;;;16.27;9.00;;;;;;;;;;5011778;28;20042;-66
2023/05/12 01:25:12;;;;;;;12.90;8.55;;;;;;;;;;5031923;28;20148;-66
2023/05/12 01:27:39;;;;;;;15.48;8.75;;;;;;;;;;5028354;28;20432;-66
2023/05/12 01:30:05;;;;;;;13.93;8.35;;;;;;;;;;5009893;28;20148;-65
2023/05/12 01:32:30;;;;;;;16.30;8.55;;;;;;;;;;5009205;28;20631;-64
2023/05/12 01:34:55;;;;;;;14.05;8.73;;;;;;;;;;5009275;28;20107;-64
2023/05/12 01:37:20;;;;;;;17.98;8.20;;;;;;;;;;5012299;28;20808;-65
2023/05/12 01:39:46;;;;;;;13.05;8.02;;;;;;;;;;5041759;28;20052;-64
2023/05/12 01:42:13;;;;;;;17.20;8.05;;;;;;;;;;5010396;28;20132;-64
2023/05/12 01:44:41;;;;;;;15.45;8.00;;;;;;;;;;5010419;28;20037;-64
2023/05/12 01:47:10;;;;;;;12.60;7.20;;;;;;;;;;5007392;28;20041;-65
2023/05/12 01:49:38;;;;;;;13.60;7.63;;;;;;;;;;5009829;28;20084;-65
2023/05/12 01:52:03;;;;;;;16.65;8.10;;;;;;;;;;5010170;28;20038;-65
2023/05/12 01:54:29;;;;;;;12.88;7.35;;;;;;;;;;5009400;28;20045;-65
2023/05/12 01:56:56;;;;;;;14.70;7.43;;;;;;;;;;5007652;28;20094;-66
2023/05/12 01:59:22;;;;;;;15.95;7.47;;;;;;;;;;5008224;28;20783;-65
2023/05/12 02:01:47;;;;;;;16.45;7.43;;;;;;;;;;5039282;28;20148;-65
2023/05/12 02:04:12;;;;;;;15.77;7.10;;;;;;;;;;5024459;28;20044;-66
2023/05/12 02:06:37;;;;;;;16.65;7.13;;;;;;;;;;5009265;28;20052;-67
2023/05/12 02:09:05;;;;;;;12.05;7.45;;;;;;;;;;5008369;28;20107;-67
2023/05/12 02:11:30;;;;;;;16.85;7.70;;;;;;;;;;5008668;28;20846;-67
2023/05/12 02:13:55;;;;;;;12.00;8.15;;;;;;;;;;5040093;28;20433;-67
2023/05/12 02:16:21;;;;;;;15.00;9.20;;;;;;;;;;5006298;28;20044;-67
2023/05/12 02:18:49;;;;;;;16.40;9.85;;;;;;;;;;5006704;28;20793;-67
2023/05/12 02:21:14;;;;;;;22.73;11.73;;;;;;;;;;5008918;28;20609;-67
2023/05/12 02:23:42;;;;;;;22.15;11.38;;;;;;;;;;5009157;28;20052;-67
2023/05/12 02:26:07;;;;;;;22.05;12.02;;;;;;;;;;5008042;28;20045;-65
2023/05/12 02:28:32;;;;;;;19.23;10.55;;;;;;;;;;5023519;28;20045;-66
2023/05/12 02:30:58;;;;;;;28.25;10.73;;;;;;;;;;5008740;28;20069;-65
2023/05/12 02:33:23;;;;;;;21.98;9.40;;;;;;;;;;5035264;28;20061;-65
2023/05/12 02:35:49;;;;;;;19.98;9.38;;;;;;;;;;5008036;28;20068;-64
2023/05/12 02:38:14;;;;;;;17.77;8.65;;;;;;;;;;5036998;28;20033;-65
2023/05/12 02:40:40;;;;;;;16.73;9.00;;;;;;;;;;5038689;28;20615;-64
2023/05/12 02:43:07;;;;;;;19.02;8.50;;;;;;;;;;5007045;28;20056;-64
2023/05/12 02:45:32;;;;;;;21.10;8.80;;;;;;;;;;5021857;28;20175;-64
2023/05/12 02:47:58;;;;;;;18.17;8.13;;;;;;;;;;5007595;28;20084;-63
2023/05/12 02:50:23;;;;;;;16.70;8.13;;;;;;;;;;5003359;28;20482;-63
2023/05/12 02:52:48;;;;;;;18.92;8.80;;;;;;;;;;5039153;28;20036;-63
2023/05/12 02:55:13;;;;;;;25.63;9.88;;;;;;;;;;5005878;28;20065;-62
2023/05/12 02:57:39;;;;;;;25.65;9.93;;;;;;;;;;5008791;28;20033;-62
2023/05/12 03:00:06;;;;;;;16.90;8.52;;;;;;;;;;5006841;28;20033;-62
2023/05/12 03:02:32;;;;;;;15.98;7.72;;;;;;;;;;5007437;28;20033;-62
2023/05/12 03:04:58;;;;;;;20.45;7.75;;;;;;;;;;5006115;28;20041;-62
2023/05/12 03:07:23;;;;;;;19.42;8.10;;;;;;;;;;5039763;28;20048;-62
2023/05/12 03:09:48;;;;;;;15.27;6.57;;;;;;;;;;5007040;28;20042;-63
2023/05/12 03:12:14;;;;;;;10.70;5.55;;;;;;;;;;5007918;28;20470;-63
2023/05/12 03:14:39;;;;;;;13.98;5.80;;;;;;;;;;5006883;28;20095;-64
2023/05/12 03:17:04;;;;;;;13.27;6.40;;;;;;;;;;5022203;28;20041;-63
2023/05/12 03:19:29;;;;;;;13.63;6.53;;;;;;;;;;5037911;28;20480;-63
2023/05/12 03:21:57;;;;;;;14.40;7.32;;;;;;;;;;5005989;28;20161;-62
2023/05/12 03:24:25;;;;;;;16.67;7.30;;;;;;;;;;5007488;28;20037;-62
2023/05/12 03:26:50;;;;;;;12.98;7.22;;;;;;;;;;5007520;28;20045;-61
2023/05/12 03:29:16;;;;;;;15.55;7.18;;;;;;;;;;5007102;28;20103;-63
2023/05/12 03:31:41;;;;;;;15.00;7.10;;;;;;;;;;5037791;28;20044;-62
2023/05/12 03:34:06;;;;;;;19.65;6.68;;;;;;;;;;5005890;28;20045;-63
2023/05/12 03:36:31;;;;;;;13.32;6.25;;;;;;;;;;5021216;28;20048;-64
2023/05/12 03:38:57;;;;;;;13.88;6.57;;;;;;;;;;5005639;28;20041;-63
2023/05/12 03:41:22;;;;;;;14.40;6.53;;;;;;;;;;5009620;28;20084;-63
2023/05/12 03:43:47;;;;;;;11.43;7.07;;;;;;;;;;5038827;28;20044;-63
2023/05/12 03:46:13;;;;;;;14.43;7.35;;;;;;;;;;5036495;28;20073;-63
2023/05/12 03:48:38;;;;;;;20.85;7.20;;;;;;;;;;5007582;28;20049;-62
2023/05/12 03:51:03;;;;;;;11.85;6.72;;;;;;;;;;4989841;28;20127;-62
2023/05/12 03:53:28;;;;;;;14.75;7.22;;;;;;;;;;4986129;28;20051;-62
2023/05/12 03:55:54;;;;;;;11.73;6.60;;;;;;;;;;5002069;28;20038;-63
2023/05/12 03:58:20;;;;;;;10.98;6.72;;;;;;;;;;5020053;28;20041;-62
2023/05/12 04:00:48;;;;;;;10.40;6.53;;;;;;;;;;4991706;28;20046;-63
2023/05/12 04:03:14;;;;;;;10.23;6.20;;;;;;;;;;4984157;28;20049;-63
2023/05/12 04:05:41;;;;;;;12.07;6.50;;;;;;;;;;4988410;28;20034;-63
2023/05/12 04:08:06;;;;;;;9.95;6.40;;;;;;;;;;5008151;28;20525;-63
2023/05/12 04:10:32;;;;;;;11.15;5.97;;;;;;;;;;5010415;28;20042;-62
2023/05/12 04:12:59;;;;;;;9.55;5.93;;;;;;;;;;5003935;28;20765;-63
2023/05/12 04:15:25;;;;;;;9.52;6.10;;;;;;;;;;5024152;28;20145;-62
2023/05/12 04:17:50;;;;;;;9.38;6.18;;;;;;;;;;5015493;28;20026;-63
2023/05/12 04:20:15;;;;;;;11.80;6.78;;;;;;;;;;5041929;28;20033;-63
2023/05/12 04:22:43;;;;;;;12.90;7.57;;;;;;;;;;5009114;28;20962;-64
2023/05/12 04:25:08;;;;;;;10.25;6.80;;;;;;;;;;5015623;28;20048;-64
2023/05/12 04:27:36;;;;;;;15.25;8.20;;;;;;;;;;5010233;28;20071;-63
2023/05/12 04:30:01;;;;;;;15.18;8.15;;;;;;;;;;5013416;28;20060;-63
2023/05/12 04:32:27;;;;;;;17.63;8.85;;;;;;;;;;5037894;28;20330;-63
2023/05/12 04:34:55;;;;;;;16.52;9.50;;;;;;;;;;5006759;28;20628;-63
2023/05/12 04:37:21;;;;;;;15.85;9.55;;;;;;;;;;5022393;28;20045;-63
2023/05/12 04:39:47;;;;;;;17.35;10.38;;;;;;;;;;5009985;28;20130;-64
2023/05/12 04:42:12;;;;;;;20.00;11.45;;;;;;;;;;5005705;28;20472;-66
2023/05/12 04:44:37;;;;;;;23.00;11.48;;;;;;;;;;5036535;28;20199;-63
2023/05/12 04:47:02;;;;;;;25.27;13.77;;;;;;;;;;5005836;28;20491;-63
2023/05/12 04:49:28;;;;;;;35.25;14.05;;;;;;;;;;5013980;28;20037;-63
2023/05/12 04:51:56;;;;;;;30.25;14.90;;;;;;;;;;5016948;28;20532;-63
2023/05/12 04:54:21;;;;;;;28.00;14.93;;;;;;;;;;4985990;28;20641;-64
2023/05/12 04:56:46;;;;;;;35.60;16.73;;;;;;;;;;4991311;28;20038;-63
2023/05/12 04:59:14;;;;;;;35.15;16.90;;;;;;;;;;4988125;28;20132;-64
2023/05/12 05:01:40;;;;;;;33.38;16.73;;;;;;;;;;4987843;28;20038;-63
2023/05/12 05:04:08;;;;;;;41.55;18.00;;;;;;;;;;5016606;28;20045;-63
2023/05/12 05:06:34;;;;;;;38.28;18.63;;;;;;;;;;5005567;28;20552;-63
2023/05/12 05:08:59;;;;;;;43.92;19.70;;;;;;;;;;5006702;28;20040;-64
2023/05/12 05:11:26;;;;;;;46.90;20.58;;;;;;;;;;5038459;28;20037;-63
2023/05/12 05:13:52;;;;;;;46.92;22.17;;;;;;;;;;5018771;28;20109;-64
2023/05/12 05:16:17;;;;;;;49.67;22.60;;;;;;;;;;5037243;28;20577;-66
2023/05/12 05:18:45;;;;;;;56.45;23.88;;;;;;;;;;5035454;28;20062;-66
2023/05/12 05:21:13;;;;;;;58.10;24.67;;;;;;;;;;5032671;28;20037;-66
2023/05/12 05:23:38;;;;;;;213.90;46.03;;;;;;;;;;5006426;28;20084;-66
2023/05/12 05:26:04;;;;;;;98.60;30.92;;;;;;;;;;5036757;28;20052;-66
2023/05/12 05:28:29;;;;;;;100.55;37.13;;;;;;;;;;5004711;28;20792;-67
2023/05/12 05:30:55;;;;;;;90.32;34.88;;;;;;;;;;5005257;28;20558;-68
2023/05/12 05:33:20;;;;;;;93.47;35.00;;;;;;;;;;5025168;28;20063;-71
2023/05/12 05:35:48;;;;;;;88.03;35.97;;;;;;;;;;5022996;28;20519;-71
2023/05/12 05:38:14;;;;;;;81.10;35.88;;;;;;;;;;5021081;28;20037;-70
2023/05/12 05:40:39;;;;;;;88.63;36.55;;;;;;;;;;5018359;28;20044;-70
2023/05/12 05:43:05;;;;;;;87.43;35.45;;;;;;;;;;5018144;28;20041;-70
2023/05/12 05:45:30;;;;;;;83.82;36.65;;;;;;;;;;5041913;28;20033;-68
2023/05/12 05:47:56;;;;;;;87.88;35.55;;;;;;;;;;5017820;28;20100;-70
2023/05/12 05:50:21;;;;;;;83.85;34.85;;;;;;;;;;4993763;28;20598;-71
2023/05/12 05:52:48;;;;;;;81.13;34.25;;;;;;;;;;4994088;28;20025;-71
2023/05/12 05:55:16;;;;;;;82.82;34.65;;;;;;;;;;5043506;28;20037;-71
2023/05/12 05:57:42;;;;;;;74.90;33.30;;;;;;;;;;5015542;28;20026;-72
2023/05/12 06:00:08;;;;;;;67.47;32.25;;;;;;;;;;5011674;28;20127;-71
2023/05/12 06:02:34;;;;;;;70.10;31.85;;;;;;;;;;5027248;28;20025;-73
2023/05/12 06:05:00;;;;;;;68.93;32.95;;;;;;;;;;5016385;28;20048;-71
2023/05/12 06:07:25;;;;;;;67.47;30.75;;;;;;;;;;5045322;28;20068;-71
2023/05/12 06:09:56;;;;;;;69.60;32.65;;;;;;;;;;5014079;28;20053;-74
2023/05/12 06:12:23;;;;;;;70.80;31.88;;;;;;;;;;5015778;28;20079;-73
2023/05/12 06:14:49;;;;;;;75.38;33.53;;;;;;;;;;5012028;28;20041;-70
2023/05/12 06:17:15;;;;;;;77.97;34.17;;;;;;;;;;5043481;28;20099;-69
2023/05/12 06:19:40;;;;;;;86.22;35.10;;;;;;;;;;5011782;28;20075;-70
2023/05/12 06:22:05;;;;;;;86.43;34.50;;;;;;;;;;5014274;28;20033;-69
2023/05/12 06:24:31;;;;;;;79.65;33.92;;;;;;;;;;5011674;28;20061;-69
2023/05/12 06:26:56;;;;;;;84.95;34.72;;;;;;;;;;5013151;28;20041;-70
2023/05/12 06:29:24;;;;;;;92.43;35.90;;;;;;;;;;5051567;28;20063;-69
2023/05/12 06:31:51;;;;;;;84.30;35.22;;;;;;;;;;5018808;28;20040;-71
2023/05/12 06:34:17;;;;;;;82.68;34.90;;;;;;;;;;5020956;28;20037;-70
2023/05/12 06:36:43;;;;;;;89.15;35.40;;;;;;;;;;5033872;28;20559;-72
2023/05/12 06:39:08;;;;;;;93.10;36.47;;;;;;;;;;5015670;28;20255;-71
2023/05/12 06:41:33;;;;;;;86.78;35.78;;;;;;;;;;5046365;28;20079;-71
2023/05/12 06:44:01;;;;;;;83.10;35.50;;;;;;;;;;5049895;28;20085;-72
2023/05/12 06:46:26;;;;;;;92.30;36.08;;;;;;;;;;5017146;28;20045;-71
2023/05/12 06:48:51;;;;;;;88.50;36.33;;;;;;;;;;5018032;28;20393;-69
2023/05/12 06:51:17;;;;;;;76.38;34.10;;;;;;;;;;5022066;28;20042;-72
2023/05/12 06:53:42;;;;;;;71.40;33.95;;;;;;;;;;5024614;28;20402;-70
2023/05/12 06:56:07;;;;;;;72.05;33.15;;;;;;;;;;5019042;28;20072;-70
2023/05/12 06:58:33;;;;;;;75.88;33.20;;;;;;;;;;5021894;28;20040;-70
2023/05/12 07:00:58;;;;;;;72.78;32.85;;;;;;;;;;5018743;28;20061;-70
2023/05/12 07:03:25;;;;;;;66.65;32.22;;;;;;;;;;5020607;28;20112;-70
2023/05/12 07:05:51;;;;;;;64.72;32.40;;;;;;;;;;5016802;28;20037;-70
2023/05/12 07:08:16;;;;;;;73.43;34.63;;;;;;;;;;5016929;28;20040;-71
2023/05/12 07:10:42;;;;;;;78.35;34.83;;;;;;;;;;5016264;28;20025;-71
2023/05/12 07:13:09;;;;;;;76.57;34.45;;;;;;;;;;5045777;28;20501;-70
2023/05/12 07:15:35;;;;;;;72.50;34.38;;;;;;;;;;5016931;28;20033;-71
2023/05/12 07:18:00;;;;;;;74.90;34.30;;;;;;;;;;5047000;28;20033;-70
2023/05/12 07:20:28;;;;;;;68.55;33.60;;;;;;;;;;5018876;28;20033;-71
2023/05/12 07:22:53;;;;;;;67.70;32.50;;;;;;;;;;5021762;28;20065;-71
2023/05/12 07:25:23;;;;;;;69.57;34.53;;;;;;;;;;5019509;28;20033;-70
2023/05/12 07:27:49;;;;;;;77.95;34.15;;;;;;;;;;5020865;28;20069;-70
2023/05/12 07:30:15;;;;;;;63.38;32.08;;;;;;;;;;5019342;28;20157;-70
2023/05/12 07:32:40;;;;;;;59.10;31.02;;;;;;;;;;5023315;28;20029;-70
2023/05/12 07:35:06;;;;;;;57.13;30.60;;;;;;;;;;5020717;28;20034;-71
2023/05/12 07:37:31;;;;;;;59.03;30.17;;;;;;;;;;5019699;28;20048;-69
2023/05/12 07:39:57;;;;;;;51.22;30.10;;;;;;;;;;5022990;28;20048;-70
2023/05/12 07:42:22;;;;;;;51.40;30.23;;;;;;;;;;5023132;28;20037;-70
2023/05/12 07:44:48;;;;;;;52.85;30.23;;;;;;;;;;5027310;28;20095;-70
2023/05/12 07:47:13;;;;;;;46.83;28.60;;;;;;;;;;5056189;28;20100;-70
2023/05/12 07:49:41;;;;;;;46.58;28.58;;;;;;;;;;5023428;28;20033;-70
2023/05/12 07:52:06;;;;;;;50.17;28.50;;;;;;;;;;5015800;28;20029;-69
2023/05/12 07:54:31;;;;;;;50.28;30.52;;;;;;;;;;5033250;28;20039;-69
2023/05/12 07:56:57;;;;;;;45.22;27.98;;;;;;;;;;5049344;28;20112;-69
2023/05/12 07:59:25;;;;;;;47.08;28.33;;;;;;;;;;5005996;28;20091;-67
2023/05/12 08:01:50;;;;;;;48.33;27.95;;;;;;;;;;5028285;28;20533;-68
2023/05/12 08:04:15;;;;;;;47.70;28.55;;;;;;;;;;4993612;28;20033;-67
2023/05/12 08:06:41;;;;;;;40.28;26.10;;;;;;;;;;4998956;28;20088;-68
2023/05/12 08:09:06;;;;;;;42.63;26.88;;;;;;;;;;4997188;28;20096;-75
2023/05/12 08:11:31;;;;;;;41.58;27.15;;;;;;;;;;4996005;28;20067;-70
2023/05/12 08:13:56;;;;;;;38.28;25.13;;;;;;;;;;4996641;28;20033;-69
2023/05/12 08:16:22;;;;;;;41.03;25.30;;;;;;;;;;4995065;28;20133;-69
2023/05/12 08:18:47;;;;;;;43.20;25.35;;;;;;;;;;4995169;28;20455;-69
2023/05/12 08:21:12;;;;;;;44.95;25.13;;;;;;;;;;4993660;28;20634;-69
2023/05/12 08:23:37;;;;;;;36.67;23.90;;;;;;;;;;4994797;28;20033;-68
2023/05/12 08:26:03;;;;;;;37.50;23.08;;;;;;;;;;5000210;28;20053;-70
2023/05/12 08:28:29;;;;;;;35.22;23.17;;;;;;;;;;5015271;28;20038;-69
2023/05/12 08:30:56;;;;;;;35.25;22.92;;;;;;;;;;5015027;28;20037;-70
2023/05/12 08:33:22;;;;;;;48.58;23.00;;;;;;;;;;5013038;28;20037;-68
2023/05/12 08:35:47;;;;;;;34.10;22.65;;;;;;;;;;5016705;28;20044;-68
2023/05/12 08:38:12;;;;;;;34.38;23.17;;;;;;;;;;5014725;28;20045;-68
2023/05/12 08:40:42;;;;;;;30.20;20.65;;;;;;;;;;5047140;28;20041;-69
2023/05/12 08:43:12;;;;;;;31.33;21.60;;;;;;;;;;5018569;28;20535;-69
2023/05/12 08:45:40;;;;;;;29.63;20.38;;;;;;;;;;5003859;28;20689;-67
2023/05/12 08:48:08;;;;;;;32.03;20.50;;;;;;;;;;5021735;28;20045;-70
2023/05/12 08:50:34;;;;;;;31.77;21.35;;;;;;;;;;5046173;28;20115;-69
2023/05/12 08:53:01;;;;;;;32.83;21.95;;;;;;;;;;5048611;28;20073;-68
2023/05/12 08:55:26;;;;;;;31.50;22.45;;;;;;;;;;5048458;28;20052;-69
2023/05/12 08:57:51;;;;;;;30.33;21.80;;;;;;;;;;5045232;28;20038;-67
2023/05/12 09:00:17;;;;;;;36.42;21.95;;;;;;;;;;5044521;28;20112;-68
2023/05/12 09:02:46;;;;;;;32.25;21.05;;;;;;;;;;5011711;28;20092;-68
2023/05/12 09:05:11;;;;;;;30.77;20.10;;;;;;;;;;5014496;28;20052;-69
2023/05/12 09:07:41;;;;;;;32.15;19.98;;;;;;;;;;5005173;28;20502;-71
2023/05/12 09:10:09;;;;;;;36.28;20.48;;;;;;;;;;5024754;28;20044;-69
2023/05/12 09:12:35;;;;;;;32.53;20.52;;;;;;;;;;5013875;28;20092;-69
2023/05/12 09:15:06;;;;;;;30.65;20.95;;;;;;;;;;5010959;28;20063;-67
2023/05/12 09:17:32;;;;;;;30.10;20.13;;;;;;;;;;5037721;28;20041;-69
2023/05/12 09:19:58;;;;;;;29.65;21.00;;;;;;;;;;5032651;28;20057;-68
2023/05/12 09:22:33;;;;;;;27.00;20.02;;;;;;;;;;5048119;28;20739;-68
2023/05/12 09:24:59;;;;;;;30.27;20.60;;;;;;;;;;5015823;28;20037;-69
2023/05/12 09:27:30;;;;;;;28.50;19.17;;;;;;;;;;5019201;28;20626;-69
2023/05/12 09:29:58;;;;;;;32.05;19.85;;;;;;;;;;5018200;28;20398;-69
2023/05/12 09:32:30;;;;;;;26.35;19.10;;;;;;;;;;5044800;28;20044;-69
2023/05/12 09:35:00;;;;;;;28.95;19.85;;;;;;;;;;5015519;28;20880;-68
2023/05/12 09:37:27;;;;;;;;;;;;;;;;;;5018269;28;20061;-68
2023/05/12 09:40:02;;;;;;;29.08;19.65;;;;;;;;;;4998382;28;22402;-67
2023/05/12 09:42:30;;;;;;;28.50;19.35;;;;;;;;;;4993716;28;20057;-68
2023/05/12 09:45:08;;;;;;;27.90;19.35;;;;;;;;;;4998250;28;22207;-68
2023/05/12 09:47:34;;;;;;;26.70;18.58;;;;;;;;;;5018191;28;20049;-69
2023/05/12 09:50:00;;;;;;;26.50;18.60;;;;;;;;;;5020015;28;20090;-71
2023/05/12 09:52:26;;;;;;;25.27;18.27;;;;;;;;;;5031131;28;20061;-67
2023/05/12 09:54:53;;;;;;;27.73;18.25;;;;;;;;;;5002532;28;20037;-67
2023/05/12 09:57:20;;;;;;;23.33;17.65;;;;;;;;;;5003091;28;20092;-66
2023/05/12 09:59:46;;;;;;;66.78;22.42;;;;;;;;;;5015241;28;20037;-66
2023/05/12 10:02:12;;;;;;;24.98;17.73;;;;;;;;;;5006808;28;20033;-66
2023/05/12 10:04:46;;;;;;;26.67;17.70;;;;;;;;;;5008275;28;20478;-68
2023/05/12 10:07:12;;;;;;;25.23;17.73;;;;;;;;;;5006014;28;20040;-67
2023/05/12 10:09:44;;;;;;;24.65;17.13;;;;;;;;;;5002091;28;20042;-68
2023/05/12 10:12:09;;;;;;;21.63;15.75;;;;;;;;;;5005196;28;20395;-69
2023/05/12 10:14:35;;;;;;;19.70;14.20;;;;;;;;;;5005546;28;20030;-68
2023/05/12 10:17:03;;;;;;;22.05;14.98;;;;;;;;;;5007696;28;20128;-68
2023/05/12 10:19:29;;;;;;;22.42;15.10;;;;;;;;;;5038336;28;20512;-68
2023/05/12 10:21:55;;;;;;;21.58;15.75;;;;;;;;;;5012786;28;20440;-68
2023/05/12 10:24:21;;;;;;;20.27;15.55;;;;;;;;;;5005502;28;20037;-69
2023/05/12 10:26:49;;;;;;;19.30;14.15;;;;;;;;;;5006900;28;20184;-68
2023/05/12 10:29:14;;;;;;;19.90;14.07;;;;;;;;;;5006843;28;20640;-69
2023/05/12 10:31:42;;;;;;;19.35;13.20;;;;;;;;;;5002416;28;20125;-70
2023/05/12 10:34:15;;;;;;;17.83;13.95;;;;;;;;;;4993816;28;20048;-71
2023/05/12 10:36:50;;;;;;;17.35;13.98;;;;;;;;;;4996349;28;20080;-70
2023/05/12 10:39:16;;;;;;;18.17;13.88;;;;;;;;;;4994296;28;20042;-71
2023/05/12 10:41:41;;;;;;;19.75;13.90;;;;;;;;;;4995979;28;20037;-71
2023/05/12 10:44:09;;;;;;;15.82;12.93;;;;;;;;;;4998079;28;20040;-71
2023/05/12 10:46:34;;;;;;;20.60;14.30;;;;;;;;;;5031034;28;20057;-70
2023/05/12 10:49:08;;;;;;;18.65;13.75;;;;;;;;;;5021370;28;20394;-70
2023/05/12 10:51:54;;;;;;;20.85;14.63;;;;;;;;;;4998973;28;20511;-70
2023/05/12 10:54:23;;;;;;;20.27;14.20;;;;;;;;;;4997532;28;20642;-68
2023/05/12 10:56:49;;;;;;;20.77;14.80;;;;;;;;;;5011532;28;20042;-69
2023/05/12 10:59:18;;;;;;;18.77;13.93;;;;;;;;;;4998341;28;20156;-68
2023/05/12 11:02:04;;;;;;;22.45;14.57;;;;;;;;;;5013003;28;20120;-68
2023/05/12 11:04:48;;;;;;;17.15;12.50;;;;;;;;;;4998970;28;22259;-68
2023/05/12 11:07:14;;;;;;;16.45;12.38;;;;;;;;;;5027418;28;20069;-68
2023/05/12 11:09:43;;;;;;;15.35;11.45;;;;;;;;;;5023714;28;20080;-68
2023/05/12 11:12:10;;;;;;;18.50;12.68;;;;;;;;;;4999028;28;20048;-68
2023/05/12 11:14:36;;;;;;;15.02;11.48;;;;;;;;;;5000118;28;20516;-69
2023/05/12 11:17:04;;;;;;;11.90;9.60;;;;;;;;;;5032101;28;20033;-68
2023/05/12 11:19:34;;;;;;;12.75;9.30;;;;;;;;;;4999489;28;20950;-69
2023/05/12 11:22:08;;;;;;;11.45;9.15;;;;;;;;;;4986934;28;20961;-69
2023/05/12 11:24:33;;;;;;;13.10;9.70;;;;;;;;;;4997450;28;20038;-69
2023/05/12 11:26:59;;;;;;;11.35;8.00;;;;;;;;;;4999778;28;20043;-68
2023/05/12 11:29:24;;;;;;;12.27;7.60;;;;;;;;;;4990881;28;20390;-70
2023/05/12 11:31:52;;;;;;;9.13;7.55;;;;;;;;;;5007742;28;20034;-69
2023/05/12 11:34:21;;;;;;;14.38;8.60;;;;;;;;;;4993747;28;20084;-71
2023/05/12 11:36:47;;;;;;;10.60;7.93;;;;;;;;;;5022376;28;20537;-70
2023/05/12 11:39:12;;;;;;;11.30;7.65;;;;;;;;;;4990110;28;20029;-72
2023/05/12 11:41:40;;;;;;;10.93;7.70;;;;;;;;;;4985952;28;20103;-73
2023/05/12 11:44:22;;;;;;;13.70;8.48;;;;;;;;;;4989948;28;20447;-71
2023/05/12 11:46:49;;;;;;;;;;;;;;;;;;4992505;28;20648;-69
2023/05/12 11:49:14;;;;;;;9.27;7.68;;;;;;;;;;5015785;28;20282;-73
2023/05/12 11:51:40;;;;;;;12.48;8.38;;;;;;;;;;4989373;28;20037;-73
2023/05/12 11:54:06;;;;;;;9.88;7.35;;;;;;;;;;5034932;28;20184;-73
2023/05/12 11:56:31;;;;;;;8.75;6.70;;;;;;;;;;5038540;28;20041;-73
2023/05/12 11:58:57;;;;;;;11.80;7.55;;;;;;;;;;5006578;28;20041;-72
2023/05/12 12:01:26;;;;;;;11.40;6.57;;;;;;;;;;5038899;28;20486;-72
2023/05/12 12:03:52;;;;;;;11.60;7.45;;;;;;;;;;5009025;28;20037;-71
2023/05/12 12:06:21;;;;;;;14.57;6.40;;;;;;;;;;5006592;28;20111;-73
2023/05/12 12:08:55;;;;;;;9.82;7.50;;;;;;;;;;5009787;28;20032;-74
2023/05/12 12:11:21;;;;;;;11.15;6.80;;;;;;;;;;5006565;28;20530;-72
2023/05/12 12:13:55;;;;;;;8.77;6.25;;;;;;;;;;5036164;28;20037;-72
2023/05/12 12:16:20;;;;;;;;;;;;;;;;;;5012912;28;20125;-71
2023/05/12 12:18:46;;;;;;;7.95;5.82;;;;;;;;;;5012110;28;19913;-72
2023/05/12 12:21:13;;;;;;;10.23;6.10;;;;;;;;;;5007787;28;20068;-70
2023/05/12 12:23:41;;;;;;;7.65;5.78;;;;;;;;;;5013112;28;20033;-71
2023/05/12 12:26:06;;;;;;;8.55;6.97;;;;;;;;;;5010253;28;20077;-71
2023/05/12 12:28:32;;;;;;;10.63;6.47;;;;;;;;;;5043359;28;20037;-69
2023/05/12 12:30:57;;;;;;;8.20;5.85;;;;;;;;;;5040102;28;20064;-71
2023/05/12 12:33:23;;;;;;;8.15;5.90;;;;;;;;;;5038899;28;20144;-72
2023/05/12 12:35:48;;;;;;;8.38;5.65;;;;;;;;;;5041213;28;20133;-72
2023/05/12 12:38:13;;;;;;;8.63;6.15;;;;;;;;;;5029316;28;20559;-71
2023/05/12 12:40:38;;;;;;;7.75;4.93;;;;;;;;;;5013555;28;20079;-69
2023/05/12 12:43:04;;;;;;;8.57;4.55;;;;;;;;;;5044420;28;20583;-68
2023/05/12 12:45:29;;;;;;;6.18;3.65;;;;;;;;;;5005106;28;20082;-68
2023/05/12 12:47:54;;;;;;;6.15;3.58;;;;;;;;;;5006941;28;20045;-68
2023/05/12 12:50:20;;;;;;;4.72;3.10;;;;;;;;;;5009859;28;20119;-68
2023/05/12 12:52:46;;;;;;;6.47;3.20;;;;;;;;;;5011201;28;20040;-67
2023/05/12 12:55:14;;;;;;;4.13;3.20;;;;;;;;;;5013725;28;20095;-68
2023/05/12 12:57:39;;;;;;;6.53;3.72;;;;;;;;;;5041249;28;20593;-67
2023/05/12 13:00:07;;;;;;;5.20;3.20;;;;;;;;;;5040447;28;20087;-68
2023/05/12 13:02:33;;;;;;;6.75;2.95;;;;;;;;;;5011858;28;20039;-68
2023/05/12 13:05:02;;;;;;;5.50;3.53;;;;;;;;;;5011778;28;22332;-67
2023/05/12 13:07:27;;;;;;;4.78;3.50;;;;;;;;;;5039997;28;20132;-67
2023/05/12 13:09:53;;;;;;;6.63;4.45;;;;;;;;;;5012898;28;20393;-68
2023/05/12 13:12:18;;;;;;;6.72;4.50;;;;;;;;;;5009967;28;20034;-68
2023/05/12 13:14:44;;;;;;;6.32;3.70;;;;;;;;;;5011200;28;20045;-66
2023/05/12 13:17:09;;;;;;;6.88;3.10;;;;;;;;;;5039560;28;20630;-67
2023/05/12 13:19:34;;;;;;;13.90;9.52;;;;;;;;;;5013668;28;20041;-67
2023/05/12 13:22:00;;;;;;;5.07;3.72;;;;;;;;;;5007533;28;20041;-69
2023/05/12 13:24:25;;;;;;;6.30;4.55;;;;;;;;;;5008848;28;20042;-67
2023/05/12 13:26:51;;;;;;;4.60;3.60;;;;;;;;;;5037383;28;20620;-68
2023/05/12 13:29:16;;;;;;;6.03;3.70;;;;;;;;;;5009025;28;20072;-67
2023/05/12 13:31:41;;;;;;;4.43;3.55;;;;;;;;;;5040149;28;20057;-68
2023/05/12 13:34:07;;;;;;;6.43;4.07;;;;;;;;;;5008734;28;20044;-68
2023/05/12 13:36:33;;;;;;;10.18;4.25;;;;;;;;;;5044204;28;20052;-70
2023/05/12 13:38:59;;;;;;;5.82;4.10;;;;;;;;;;5010793;28;20037;-70
2023/05/12 13:41:24;;;;;;;5.72;3.72;;;;;;;;;;5044448;28;20044;-69
2023/05/12 13:43:49;;;;;;;5.55;3.88;;;;;;;;;;5045190;28;20094;-69
2023/05/12 13:46:17;;;;;;;5.97;4.10;;;;;;;;;;5009150;28;20045;-68
2023/05/12 13:48:42;;;;;;;6.70;3.97;;;;;;;;;;5008873;28;20034;-71
2023/05/12 13:51:07;;;;;;;5.60;3.60;;;;;;;;;;5014279;28;20033;-69
2023/05/12 13:53:37;;;;;;;5.15;3.50;;;;;;;;;;5042429;28;20164;-69
2023/05/12 13:56:06;;;;;;;5.25;3.10;;;;;;;;;;5043249;28;20038;-69
2023/05/12 13:58:31;;;;;;;5.88;3.63;;;;;;;;;;5012674;28;20037;-69
2023/05/12 14:00:56;;;;;;;6.85;3.60;;;;;;;;;;5006552;28;20048;-69
2023/05/12 14:03:22;;;;;;;6.15;3.50;;;;;;;;;;5012975;28;20112;-66
2023/05/12 14:05:47;;;;;;;4.82;3.20;;;;;;;;;;5016712;28;20037;-68
2023/05/12 14:08:12;;;;;;;4.63;3.50;;;;;;;;;;5014205;28;20093;-71
2023/05/12 14:10:38;;;;;;;7.28;4.70;;;;;;;;;;5041349;28;20041;-71
2023/05/12 14:13:03;;;;;;;7.68;4.70;;;;;;;;;;5038758;28;20056;-70
2023/05/12 14:15:28;;;;;;;8.02;5.00;;;;;;;;;;5038446;28;20038;-67
2023/05/12 14:17:53;;;;;;;6.80;4.07;;;;;;;;;;5011579;28;20580;-68
2023/05/12 14:20:19;;;;;;;7.32;5.10;;;;;;;;;;5040244;28;20052;-68
2023/05/12 14:22:44;;;;;;;6.95;4.40;;;;;;;;;;4990657;28;20037;-70